Time,TemperatureF,DewpointF,PressureIn,WindDirection,WindDirectionDegrees,WindSpeedMPH,WindSpeedGustMPH,Humidity,HourlyPrecipIn,Conditions,Clouds,dailyrainin,SoftwareType,DateUTC
2013-02-22 00:00:00,68.3,63.3,29.79,North,9,5.0,12.0,84,0.00,,---,0.00,VWS V14.01,2013-02-22 06:00:00,
2013-02-22 00:02:00,67.9,62.9,29.79,North,5,0.0,7.0,84,0.00,,---,0.00,VWS V14.01,2013-02-22 06:02:00,
2013-02-22 00:07:00,67.6,62.9,29.79,NNE,30,3.0,7.0,85,0.00,,---,0.00,VWS V14.01,2013-02-22 06:07:00,
2013-02-22 00:12:00,67.3,62.6,29.79,North,355,0.0,7.0,85,0.00,,---,0.00,VWS V14.01,2013-02-22 06:12:00,
2013-02-22 00:15:00,65.5,63.4,29.81,NE,42,4.0,6.0,93,0.00,,---,0.00,VWS V14.01,2013-02-22 06:15:00,
2013-02-22 00:17:00,67.1,62.5,29.81,NNW,336,2.0,5.0,85,0.00,,---,0.00,VWS V14.01,2013-02-22 06:17:00,
2013-02-22 00:22:00,67.1,62.8,29.81,NNE,17,7.0,8.0,86,0.00,,---,0.00,VWS V14.01,2013-02-22 06:22:00,
2013-02-22 00:27:00,66.8,62.8,29.81,NNE,17,6.0,8.0,87,0.00,,---,0.00,VWS V14.01,2013-02-22 06:27:00,
2013-02-22 00:30:00,66.6,62.9,29.81,NNE,14,5.0,8.0,88,0.00,,---,0.00,VWS V14.01,2013-02-22 06:30:00,
2013-02-22 00:32:00,66.3,62.6,29.81,North,5,3.0,6.0,88,0.00,,---,0.00,VWS V14.01,2013-02-22 06:32:00,
2013-02-22 00:37:00,66.1,62.8,29.81,NNE,18,5.0,7.0,89,0.00,,---,0.00,VWS V14.01,2013-02-22 06:37:00,
2013-02-22 00:43:00,66.0,63.0,29.81,North,5,3.0,7.0,90,0.00,,---,0.00,VWS V14.01,2013-02-22 06:43:00,
2013-02-22 00:45:00,65.8,62.8,29.81,NNE,15,4.0,7.0,90,0.00,,---,0.00,VWS V14.01,2013-02-22 06:45:00,
2013-02-22 00:48:00,65.8,63.1,29.81,NNE,15,3.0,6.0,91,0.00,,---,0.00,VWS V14.01,2013-02-22 06:48:00,
2013-02-22 00:53:00,65.5,62.8,29.81,ENE,67,0.0,6.0,91,0.00,,---,0.00,VWS V14.01,2013-02-22 06:53:00,
2013-02-22 00:58:00,65.3,62.9,29.81,NE,38,0.0,6.0,92,0.00,,---,0.00,VWS V14.01,2013-02-22 06:58:00,
2013-02-22 01:00:00,65.3,62.9,29.81,NE,38,3.0,6.0,92,0.00,,---,0.00,VWS V14.01,2013-02-22 07:00:00,
2013-02-22 01:03:00,65.3,62.9,29.81,NE,41,2.0,5.0,92,0.00,,---,0.00,VWS V14.01,2013-02-22 07:03:00,
2013-02-22 01:08:00,65.3,62.9,29.81,NE,43,4.0,5.0,92,0.00,,---,0.00,VWS V14.01,2013-02-22 07:08:00,
2013-02-22 01:13:00,65.5,63.4,29.81,NE,36,4.0,6.0,93,0.00,,---,0.00,VWS V14.01,2013-02-22 07:13:00,
2013-02-22 01:15:00,65.5,63.4,29.81,NE,42,4.0,6.0,93,0.00,,---,0.00,VWS V14.01,2013-02-22 07:15:00,
2013-02-22 01:18:00,65.5,63.4,29.81,NNE,23,3.0,7.0,93,0.00,,---,0.00,VWS V14.01,2013-02-22 07:18:00,
2013-02-22 01:23:00,65.0,62.9,29.81,NE,40,0.0,7.0,93,0.00,,---,0.00,VWS V14.01,2013-02-22 07:23:00,
2013-02-22 01:28:00,65.3,63.2,29.81,NE,40,0.0,7.0,93,0.00,,---,0.00,VWS V14.01,2013-02-22 07:28:00,
2013-02-22 01:30:00,65.0,62.9,29.81,NE,40,2.0,7.0,93,0.00,,---,0.00,VWS V14.01,2013-02-22 07:30:00,
2013-02-22 01:33:00,64.8,62.7,29.81,NE,49,3.0,5.0,93,0.01,,---,0.01,VWS V14.01,2013-02-22 07:33:00,
2013-02-22 01:39:00,65.2,63.4,29.81,NE,36,4.0,5.0,94,0.01,,---,0.01,VWS V14.01,2013-02-22 07:39:00,
2013-02-22 01:44:00,64.7,62.9,29.83,NNE,25,2.0,5.0,94,0.01,,---,0.01,VWS V14.01,2013-02-22 07:44:00,
2013-02-22 01:45:00,64.0,62.2,29.81,NE,39,3.0,6.0,94,0.01,,---,0.01,VWS V14.01,2013-02-22 07:45:00,
2013-02-22 01:49:00,64.7,62.9,29.83,NE,41,1.0,4.0,94,0.01,,---,0.01,VWS V14.01,2013-02-22 07:49:00,
2013-02-22 01:54:00,64.7,62.9,29.83,NE,41,2.0,4.0,94,0.01,,---,0.01,VWS V14.01,2013-02-22 07:54:00,
2013-02-22 01:59:00,64.7,64.1,29.83,NE,46,3.0,4.0,98,0.01,,---,0.01,VWS V14.01,2013-02-22 07:59:00,
2013-02-22 02:00:00,64.7,64.1,29.83,NE,46,3.0,4.0,98,0.01,,---,0.01,VWS V14.01,2013-02-22 08:00:00,
2013-02-22 02:04:00,64.5,62.7,29.83,NE,46,0.0,5.0,94,0.01,,---,0.01,VWS V14.01,2013-02-22 08:04:00,
2013-02-22 02:09:00,64.5,62.7,29.83,NE,46,2.0,5.0,94,0.01,,---,0.01,VWS V14.01,2013-02-22 08:09:00,
2013-02-22 02:14:00,64.5,62.7,29.82,NE,42,4.0,5.0,94,0.01,,---,0.01,VWS V14.01,2013-02-22 08:14:00,
2013-02-22 02:15:00,64.5,62.7,29.82,NE,42,5.0,5.0,94,0.01,,---,0.01,VWS V14.01,2013-02-22 08:15:00,
2013-02-22 02:19:00,64.5,62.7,29.82,NE,41,1.0,5.0,94,0.01,,---,0.01,VWS V14.01,2013-02-22 08:19:00,
2013-02-22 02:24:00,64.5,62.7,29.82,NE,41,0.0,5.0,94,0.01,,---,0.01,VWS V14.01,2013-02-22 08:24:00,
2013-02-22 02:29:00,64.5,62.7,29.82,NE,41,0.0,3.0,94,0.01,,---,0.01,VWS V14.01,2013-02-22 08:29:00,
2013-02-22 02:30:00,64.3,62.5,29.82,NE,41,3.0,5.0,94,0.01,,---,0.01,VWS V14.01,2013-02-22 08:30:00,
2013-02-22 02:34:00,64.3,62.5,29.82,ENE,59,0.0,3.0,94,0.01,,---,0.01,VWS V14.01,2013-02-22 08:34:00,
2013-02-22 02:40:00,64.2,62.4,29.82,NE,55,2.0,4.0,94,0.01,,---,0.01,VWS V14.01,2013-02-22 08:40:00,
2013-02-22 02:45:00,64.0,62.2,29.81,NE,39,2.0,3.0,94,0.00,,---,0.01,VWS V14.01,2013-02-22 08:45:00,
2013-02-22 02:50:00,64.0,62.2,29.81,ENE,76,0.0,4.0,94,0.00,,---,0.01,VWS V14.01,2013-02-22 08:50:00,
2013-02-22 02:55:00,63.9,62.1,29.81,ENE,70,3.0,4.0,94,0.00,,---,0.01,VWS V14.01,2013-02-22 08:55:00,
2013-02-22 03:00:00,63.9,62.1,29.81,NE,40,4.0,5.0,94,0.00,,---,0.01,VWS V14.01,2013-02-22 09:00:00,
2013-02-22 03:05:00,64.0,62.2,29.81,NE,35,1.0,6.0,94,0.00,,---,0.01,VWS V14.01,2013-02-22 09:05:00,
2013-02-22 03:10:00,63.5,61.8,29.81,NE,39,0.0,7.0,94,0.00,,---,0.01,VWS V14.01,2013-02-22 09:10:00,
2013-02-22 03:15:00,63.5,62.0,29.81,NE,51,3.0,3.0,95,0.00,,---,0.01,VWS V14.01,2013-02-22 09:15:00,
2013-02-22 03:20:00,63.5,62.0,29.81,NE,42,3.0,6.0,95,0.00,,---,0.01,VWS V14.01,2013-02-22 09:20:00,
2013-02-22 03:25:00,63.4,62.0,29.81,ENE,61,7.0,7.0,95,0.00,,---,0.01,VWS V14.01,2013-02-22 09:25:00,
2013-02-22 03:30:00,63.4,62.0,29.80,NE,46,2.0,6.0,95,0.00,,---,0.01,VWS V14.01,2013-02-22 09:30:00,
2013-02-22 03:35:00,63.2,61.5,29.80,NNE,32,6.0,7.0,94,0.00,,---,0.01,VWS V14.01,2013-02-22 09:35:00,
2013-02-22 03:40:00,63.1,61.3,29.80,NE,50,1.0,7.0,94,0.00,,---,0.01,VWS V14.01,2013-02-22 09:40:00,
2013-02-22 03:45:00,63.1,61.3,29.80,NNE,32,5.0,5.0,94,0.00,,---,0.01,VWS V14.01,2013-02-22 09:45:00,
2013-02-22 03:51:00,62.9,60.8,29.80,ENE,64,2.0,9.0,93,0.00,,---,0.01,VWS V14.01,2013-02-22 09:51:00,
2013-02-22 03:55:00,62.9,60.8,29.80,NNE,28,2.0,9.0,93,0.00,,---,0.01,VWS V14.01,2013-02-22 09:55:00,
2013-02-22 04:00:00,62.9,60.8,29.81,NE,47,3.0,9.0,93,0.00,,---,0.01,VWS V14.01,2013-02-22 10:00:00,
2013-02-22 04:01:00,62.9,60.8,29.81,NE,46,3.0,5.0,93,0.00,,---,0.01,VWS V14.01,2013-02-22 10:01:00,
2013-02-22 04:06:00,63.1,60.7,29.81,NE,38,2.0,6.0,92,0.00,,---,0.01,VWS V14.01,2013-02-22 10:06:00,
2013-02-22 04:11:00,63.2,60.8,29.81,NE,38,3.0,6.0,92,0.00,,---,0.01,VWS V14.01,2013-02-22 10:11:00,
2013-02-22 04:15:00,62.7,60.0,29.82,ENE,58,3.0,6.0,91,0.00,,---,0.01,VWS V14.01,2013-02-22 10:15:00,
2013-02-22 04:16:00,63.1,60.4,29.82,ENE,63,0.0,4.0,91,0.00,,---,0.01,VWS V14.01,2013-02-22 10:16:00,
2013-02-22 04:21:00,62.6,59.6,29.82,NE,44,2.0,5.0,90,0.00,,---,0.01,VWS V14.01,2013-02-22 10:21:00,
2013-02-22 04:26:00,62.7,59.4,29.82,ENE,60,2.0,5.0,89,0.00,,---,0.01,VWS V14.01,2013-02-22 10:26:00,
2013-02-22 04:30:00,62.7,59.1,29.83,NE,42,4.0,5.0,88,0.00,,---,0.01,VWS V14.01,2013-02-22 10:30:00,
2013-02-22 04:31:00,62.6,58.7,29.83,NE,44,2.0,6.0,87,0.00,,---,0.01,VWS V14.01,2013-02-22 10:31:00,
2013-02-22 04:36:00,62.6,58.4,29.83,NE,42,5.0,6.0,86,0.00,,---,0.01,VWS V14.01,2013-02-22 10:36:00,
2013-02-22 04:41:00,62.6,58.0,29.83,NE,35,2.0,6.0,85,0.00,,---,0.01,VWS V14.01,2013-02-22 10:41:00,
2013-02-22 04:45:00,62.6,58.0,29.84,NE,35,3.0,6.0,85,0.00,,---,0.01,VWS V14.01,2013-02-22 10:45:00,
2013-02-22 04:46:00,62.6,58.0,29.84,NE,35,0.0,4.0,85,0.00,,---,0.01,VWS V14.01,2013-02-22 10:46:00,
2013-02-22 04:51:00,62.9,57.7,29.84,NE,34,3.0,6.0,83,0.00,,---,0.01,VWS V14.01,2013-02-22 10:51:00,
2013-02-22 04:56:00,62.9,57.7,29.84,NE,36,2.0,6.0,83,0.00,,---,0.01,VWS V14.01,2013-02-22 10:56:00,
2013-02-22 05:00:00,62.6,57.7,29.84,NE,38,2.0,6.0,84,0.00,,---,0.01,VWS V14.01,2013-02-22 11:00:00,
2013-02-22 05:01:00,62.9,58.0,29.84,ENE,78,0.0,4.0,84,0.00,,---,0.01,VWS V14.01,2013-02-22 11:01:00,
2013-02-22 05:06:00,62.6,57.7,29.84,NNE,13,0.0,5.0,84,0.00,,---,0.01,VWS V14.01,2013-02-22 11:06:00,
2013-02-22 05:11:00,62.6,57.7,29.84,ENE,57,0.0,5.0,84,0.00,,---,0.01,VWS V14.01,2013-02-22 11:11:00,
2013-02-22 05:15:00,62.4,57.5,29.84,ENE,57,0.0,5.0,84,0.00,,---,0.01,VWS V14.01,2013-02-22 11:15:00,
2013-02-22 05:16:00,62.4,57.5,29.84,NE,55,0.0,6.0,84,0.00,,---,0.01,VWS V14.01,2013-02-22 11:16:00,
2013-02-22 05:21:00,61.8,56.6,29.84,ENE,76,0.0,6.0,83,0.00,,---,0.01,VWS V14.01,2013-02-22 11:21:00,
2013-02-22 05:26:00,61.6,56.4,29.84,ENE,76,0.0,6.0,83,0.00,,---,0.01,VWS V14.01,2013-02-22 11:26:00,
2013-02-22 05:30:00,61.6,56.4,29.85,ENE,76,1.0,6.0,83,0.00,,---,0.01,VWS V14.01,2013-02-22 11:30:00,
2013-02-22 05:31:00,61.6,56.4,29.85,NE,52,0.0,6.0,83,0.00,,---,0.01,VWS V14.01,2013-02-22 11:31:00,
2013-02-22 05:37:00,61.5,56.3,29.85,East,86,3.0,6.0,83,0.00,,---,0.01,VWS V14.01,2013-02-22 11:37:00,
2013-02-22 05:42:00,61.5,56.3,29.85,ENE,70,0.0,6.0,83,0.00,,---,0.01,VWS V14.01,2013-02-22 11:42:00,
2013-02-22 05:45:00,61.6,56.4,29.85,NE,46,4.0,6.0,83,0.00,,---,0.01,VWS V14.01,2013-02-22 11:45:00,
2013-02-22 05:47:00,61.5,56.3,29.85,NE,38,6.0,6.0,83,0.00,,---,0.01,VWS V14.01,2013-02-22 11:47:00,
2013-02-22 05:52:00,61.5,56.3,29.85,NE,51,4.0,6.0,83,0.00,,---,0.01,VWS V14.01,2013-02-22 11:52:00,
2013-02-22 05:57:00,61.6,56.7,29.85,NNE,25,3.0,6.0,84,0.00,,---,0.01,VWS V14.01,2013-02-22 11:57:00,
2013-02-22 06:00:00,61.2,56.3,29.86,NNE,33,0.0,6.0,84,0.00,,---,0.01,VWS V14.01,2013-02-22 12:00:00,
2013-02-22 06:02:00,61.6,56.7,29.86,NNE,33,0.0,1.0,84,0.00,,---,0.01,VWS V14.01,2013-02-22 12:02:00,
2013-02-22 06:07:00,61.6,57.0,29.86,NE,44,2.0,6.0,85,0.00,,---,0.01,VWS V14.01,2013-02-22 12:07:00,
2013-02-22 06:12:00,61.6,57.0,29.86,ENE,66,2.0,6.0,85,0.00,,---,0.01,VWS V14.01,2013-02-22 12:12:00,
2013-02-22 06:15:00,61.3,56.8,29.86,ENE,65,0.0,6.0,85,0.00,,---,0.01,VWS V14.01,2013-02-22 12:15:00,
2013-02-22 06:17:00,61.3,56.8,29.86,ENE,58,2.0,3.0,85,0.00,,---,0.01,VWS V14.01,2013-02-22 12:17:00,
2013-02-22 06:22:00,61.3,56.8,29.86,NE,55,3.0,5.0,85,0.00,,---,0.01,VWS V14.01,2013-02-22 12:22:00,
2013-02-22 06:27:00,61.3,56.8,29.86,East,80,2.0,6.0,85,0.00,,---,0.01,VWS V14.01,2013-02-22 12:27:00,
2013-02-22 06:30:00,61.3,56.8,29.87,East,90,1.0,6.0,85,0.00,,---,0.01,VWS V14.01,2013-02-22 12:30:00,
2013-02-22 06:32:00,61.5,56.6,29.87,NNE,32,5.0,5.0,84,0.00,,---,0.01,VWS V14.01,2013-02-22 12:32:00,
2013-02-22 06:37:00,61.5,56.6,29.87,NNE,14,4.0,5.0,84,0.00,,---,0.01,VWS V14.01,2013-02-22 12:37:00,
2013-02-22 06:42:00,61.6,56.7,29.87,NE,40,2.0,5.0,84,0.00,,---,0.01,VWS V14.01,2013-02-22 12:42:00,
2013-02-22 06:45:00,61.6,56.7,29.88,ENE,69,2.0,5.0,84,0.00,,---,0.01,VWS V14.01,2013-02-22 12:45:00,
2013-02-22 06:48:00,61.6,57.0,29.88,ENE,73,0.0,2.0,85,0.00,,---,0.01,VWS V14.01,2013-02-22 12:48:00,
2013-02-22 06:53:00,61.6,57.0,29.88,NE,45,0.0,4.0,85,0.00,,---,0.01,VWS V14.01,2013-02-22 12:53:00,
2013-02-22 06:58:00,61.6,56.7,29.88,ENE,59,0.0,4.0,84,0.00,,---,0.01,VWS V14.01,2013-02-22 12:58:00,
2013-02-22 07:00:00,62.0,57.4,29.87,ENE,59,0.0,4.0,85,0.00,,---,0.01,VWS V14.01,2013-02-22 13:00:00,
2013-02-22 07:03:00,61.8,57.2,29.87,NE,51,0.0,4.0,85,0.00,,---,0.01,VWS V14.01,2013-02-22 13:03:00,
2013-02-22 07:08:00,61.8,57.2,29.87,NE,46,0.0,4.0,85,0.00,,---,0.01,VWS V14.01,2013-02-22 13:08:00,
2013-02-22 07:13:00,62.0,57.1,29.87,East,89,0.0,4.0,84,0.00,,---,0.01,VWS V14.01,2013-02-22 13:13:00,
2013-02-22 07:15:00,61.6,56.7,29.89,East,89,0.0,4.0,84,0.00,,---,0.01,VWS V14.01,2013-02-22 13:15:00,
2013-02-22 07:18:00,61.6,56.7,29.89,East,89,0.0,1.0,84,0.00,,---,0.01,VWS V14.01,2013-02-22 13:18:00,
2013-02-22 07:23:00,61.8,56.9,29.89,ENE,63,0.0,5.0,84,0.00,,---,0.01,VWS V14.01,2013-02-22 13:23:00,
2013-02-22 07:28:00,61.8,56.9,29.89,ENE,58,2.0,5.0,84,0.00,,---,0.01,VWS V14.01,2013-02-22 13:28:00,
2013-02-22 07:30:00,62.3,57.4,29.90,ENE,58,0.0,5.0,84,0.00,,---,0.01,VWS V14.01,2013-02-22 13:30:00,
2013-02-22 07:33:00,62.0,56.8,29.90,ENE,58,0.0,2.0,83,0.00,,---,0.01,VWS V14.01,2013-02-22 13:33:00,
2013-02-22 07:38:00,62.0,56.8,29.90,ENE,58,0.0,2.0,83,0.00,,---,0.01,VWS V14.01,2013-02-22 13:38:00,
2013-02-22 07:43:00,62.0,56.8,29.90,ENE,58,0.0,4.0,83,0.00,,---,0.01,VWS V14.01,2013-02-22 13:43:00,
2013-02-22 07:45:00,62.0,56.8,29.90,ENE,58,0.0,4.0,83,0.00,,---,0.01,VWS V14.01,2013-02-22 13:45:00,
2013-02-22 07:48:00,62.1,56.9,29.90,East,88,1.0,3.0,83,0.00,,---,0.01,VWS V14.01,2013-02-22 13:48:00,
2013-02-22 07:53:00,62.6,57.4,29.90,NNE,23,2.0,6.0,83,0.00,,---,0.01,VWS V14.01,2013-02-22 13:53:00,
2013-02-22 07:58:00,63.1,57.2,29.90,NE,42,0.0,6.0,81,0.00,,---,0.01,VWS V14.01,2013-02-22 13:58:00,
2013-02-22 08:00:00,63.1,57.2,29.90,ENE,76,4.0,6.0,81,0.00,,---,0.01,VWS V14.01,2013-02-22 14:00:00,
2013-02-22 08:04:00,63.4,57.1,29.90,NNE,24,0.0,5.0,80,0.00,,---,0.01,VWS V14.01,2013-02-22 14:04:00,
2013-02-22 08:09:00,63.7,56.7,29.90,ENE,73,1.0,6.0,78,0.00,,---,0.01,VWS V14.01,2013-02-22 14:09:00,
2013-02-22 08:14:00,64.2,56.5,29.91,East,90,1.0,6.0,76,0.00,,---,0.01,VWS V14.01,2013-02-22 14:14:00,
2013-02-22 08:15:00,64.2,56.5,29.91,East,90,3.0,6.0,76,0.00,,---,0.01,VWS V14.01,2013-02-22 14:15:00,
2013-02-22 08:19:00,64.5,56.0,29.91,ENE,59,2.0,6.0,74,0.00,,---,0.01,VWS V14.01,2013-02-22 14:19:00,
2013-02-22 08:24:00,64.7,56.2,29.91,East,82,2.0,6.0,74,0.00,,---,0.01,VWS V14.01,2013-02-22 14:24:00,
2013-02-22 08:29:00,64.8,56.3,29.92,East,80,0.0,6.0,74,0.00,,---,0.01,VWS V14.01,2013-02-22 14:29:00,
2013-02-22 08:30:00,64.8,56.3,29.92,East,80,0.0,6.0,74,0.00,,---,0.01,VWS V14.01,2013-02-22 14:30:00,
2013-02-22 08:34:00,65.2,56.3,29.92,ENE,66,3.0,5.0,73,0.00,,---,0.01,VWS V14.01,2013-02-22 14:34:00,
2013-02-22 08:39:00,65.0,56.2,29.92,East,86,0.0,6.0,73,0.00,,---,0.01,VWS V14.01,2013-02-22 14:39:00,
2013-02-22 08:44:00,65.0,56.2,29.91,ENE,78,0.0,6.0,73,0.00,,---,0.01,VWS V14.01,2013-02-22 14:44:00,
2013-02-22 08:45:00,65.5,55.5,29.92,NE,49,6.0,11.0,70,0.00,,---,0.01,VWS V14.01,2013-02-22 14:45:00,
2013-02-22 08:49:00,65.0,55.4,29.91,NE,45,0.0,3.0,71,0.00,,---,0.01,VWS V14.01,2013-02-22 14:49:00,
2013-02-22 08:54:00,65.0,55.4,29.91,East,81,4.0,4.0,71,0.00,,---,0.01,VWS V14.01,2013-02-22 14:54:00,
2013-02-22 08:59:00,65.0,55.0,29.92,ENE,68,2.0,5.0,70,0.00,,---,0.01,VWS V14.01,2013-02-22 14:59:00,
2013-02-22 09:00:00,65.2,55.2,29.92,ENE,72,5.0,6.0,70,0.00,,---,0.01,VWS V14.01,2013-02-22 15:00:00,
2013-02-22 09:04:00,65.2,56.0,29.92,NE,47,0.0,5.0,72,0.00,,---,0.01,VWS V14.01,2013-02-22 15:04:00,
2013-02-22 09:09:00,65.3,56.0,29.92,NE,37,5.0,5.0,72,0.00,,---,0.01,VWS V14.01,2013-02-22 15:09:00,
2013-02-22 09:14:00,65.3,55.3,29.92,NE,42,2.0,3.0,70,0.00,,---,0.01,VWS V14.01,2013-02-22 15:14:00,
2013-02-22 09:15:00,65.6,56.0,29.92,NE,45,2.0,7.0,71,0.00,,---,0.01,VWS V14.01,2013-02-22 15:15:00,
2013-02-22 09:19:00,65.6,56.3,29.92,NE,38,0.0,6.0,72,0.00,,---,0.01,VWS V14.01,2013-02-22 15:19:00,
2013-02-22 09:24:00,65.8,55.8,29.92,NE,34,2.0,10.0,70,0.00,,---,0.01,VWS V14.01,2013-02-22 15:24:00,
2013-02-22 09:29:00,65.8,55.8,29.92,ENE,63,5.0,6.0,70,0.00,,---,0.01,VWS V14.01,2013-02-22 15:29:00,
2013-02-22 09:30:00,65.5,55.9,29.92,East,82,6.0,10.0,71,0.00,,---,0.01,VWS V14.01,2013-02-22 15:30:00,
2013-02-22 09:34:00,65.8,55.8,29.92,NE,34,5.0,8.0,70,0.00,,---,0.01,VWS V14.01,2013-02-22 15:34:00,
2013-02-22 09:40:00,65.5,55.5,29.92,NE,44,5.0,11.0,70,0.00,,---,0.01,VWS V14.01,2013-02-22 15:40:00,
2013-02-22 09:45:00,65.5,55.5,29.92,NE,38,3.0,6.0,70,0.00,,---,0.01,VWS V14.01,2013-02-22 15:45:00,
2013-02-22 09:50:00,65.6,55.6,29.92,NE,40,0.0,6.0,70,0.00,,---,0.01,VWS V14.01,2013-02-22 15:50:00,
2013-02-22 09:55:00,65.8,55.4,29.92,NNE,33,2.0,9.0,69,0.00,,---,0.01,VWS V14.01,2013-02-22 15:55:00,
2013-02-22 10:00:00,66.1,55.2,29.90,NE,54,1.0,5.0,68,0.00,,---,0.01,VWS V14.01,2013-02-22 16:00:00,
2013-02-22 10:05:00,66.1,55.2,29.90,East,101,3.0,7.0,68,0.00,,---,0.01,VWS V14.01,2013-02-22 16:05:00,
2013-02-22 10:10:00,66.0,54.7,29.90,East,90,0.0,7.0,67,0.00,,---,0.01,VWS V14.01,2013-02-22 16:10:00,
2013-02-22 10:15:00,66.0,55.2,29.91,East,101,0.0,3.0,68,0.00,,---,0.01,VWS V14.01,2013-02-22 16:15:00,
2013-02-22 10:20:00,66.0,54.7,29.91,ESE,115,0.0,7.0,67,0.00,,---,0.01,VWS V14.01,2013-02-22 16:20:00,
2013-02-22 10:25:00,66.1,54.4,29.91,ENE,58,0.0,7.0,66,0.00,,---,0.01,VWS V14.01,2013-02-22 16:25:00,
2013-02-22 10:30:00,66.1,54.8,29.92,ENE,71,0.0,0.0,67,0.00,,---,0.01,VWS V14.01,2013-02-22 16:30:00,
2013-02-22 10:36:00,66.3,55.0,29.92,NE,47,0.0,7.0,67,0.00,,---,0.01,VWS V14.01,2013-02-22 16:36:00,
2013-02-22 10:41:00,66.3,55.4,29.92,ENE,78,2.0,7.0,68,0.00,,---,0.01,VWS V14.01,2013-02-22 16:41:00,
2013-02-22 10:45:00,66.3,54.2,29.91,ENE,63,5.0,7.0,65,0.00,,---,0.01,VWS V14.01,2013-02-22 16:45:00,
2013-02-22 10:46:00,66.3,54.2,29.91,ESE,120,0.0,5.0,65,0.00,,---,0.01,VWS V14.01,2013-02-22 16:46:00,
2013-02-22 10:51:00,66.3,54.6,29.91,ENE,73,5.0,7.0,66,0.00,,---,0.01,VWS V14.01,2013-02-22 16:51:00,
2013-02-22 10:56:00,66.1,54.4,29.91,East,80,0.0,7.0,66,0.00,,---,0.01,VWS V14.01,2013-02-22 16:56:00,
2013-02-22 11:00:00,66.4,55.1,29.90,East,94,2.0,7.0,67,0.00,,---,0.01,VWS V14.01,2013-02-22 17:00:00,
2013-02-22 11:01:00,66.1,55.2,29.90,East,94,1.0,2.0,68,0.00,,---,0.01,VWS V14.01,2013-02-22 17:01:00,
2013-02-22 11:06:00,66.0,56.0,29.90,East,95,2.0,4.0,70,0.00,,---,0.01,VWS V14.01,2013-02-22 17:06:00,
2013-02-22 11:11:00,66.1,56.8,29.90,WSW,238,4.0,7.0,72,0.00,,---,0.01,VWS V14.01,2013-02-22 17:11:00,
2013-02-22 11:15:00,65.2,57.8,29.95,SW,215,5.0,7.0,77,0.00,,---,0.01,VWS V14.01,2013-02-22 17:15:00,
2013-02-22 11:16:00,64.7,58.4,29.95,South,183,7.0,10.0,80,0.00,,---,0.01,VWS V14.01,2013-02-22 17:16:00,
2013-02-22 11:21:00,63.9,58.6,29.95,SE,144,0.0,10.0,83,0.05,,---,0.06,VWS V14.01,2013-02-22 17:21:00,
2013-02-22 11:26:00,63.5,59.2,29.95,East,101,3.0,10.0,86,0.05,,---,0.06,VWS V14.01,2013-02-22 17:26:00,
2013-02-22 11:30:00,63.5,59.2,29.92,ESE,111,4.0,10.0,86,0.05,,---,0.06,VWS V14.01,2013-02-22 17:30:00,
2013-02-22 11:31:00,63.2,58.3,29.92,ESE,102,3.0,6.0,84,0.05,,---,0.06,VWS V14.01,2013-02-22 17:31:00,
2013-02-22 11:37:00,63.2,58.3,29.92,East,94,3.0,6.0,84,0.05,,---,0.06,VWS V14.01,2013-02-22 17:37:00,
2013-02-22 11:42:00,62.9,57.3,29.92,SE,125,3.0,9.0,82,0.05,,---,0.06,VWS V14.01,2013-02-22 17:42:00,
2013-02-22 11:45:00,62.9,57.0,29.90,ENE,74,4.0,9.0,81,0.05,,---,0.06,VWS V14.01,2013-02-22 17:45:00,
2013-02-22 11:47:00,63.1,55.4,29.90,ESE,123,3.0,11.0,76,0.05,,---,0.06,VWS V14.01,2013-02-22 17:47:00,
2013-02-22 11:52:00,63.2,56.2,29.90,East,91,3.0,11.0,78,0.05,,---,0.06,VWS V14.01,2013-02-22 17:52:00,
2013-02-22 11:57:00,63.4,57.1,29.90,ENE,78,3.0,11.0,80,0.05,,---,0.06,VWS V14.01,2013-02-22 17:57:00,
2013-02-22 12:00:00,63.7,56.7,29.90,East,91,4.0,11.0,78,0.05,,---,0.06,VWS V14.01,2013-02-22 18:00:00,
2013-02-22 12:02:00,63.4,55.0,29.90,ESE,121,6.0,10.0,74,0.05,,---,0.06,VWS V14.01,2013-02-22 18:02:00,
2013-02-22 12:07:00,63.7,54.1,29.90,East,85,6.0,13.0,71,0.05,,---,0.06,VWS V14.01,2013-02-22 18:07:00,
2013-02-22 12:12:00,64.0,54.4,29.90,ESE,106,4.0,13.0,71,0.05,,---,0.06,VWS V14.01,2013-02-22 18:12:00,
2013-02-22 12:15:00,64.0,53.6,29.90,ENE,71,1.0,13.0,69,0.05,,---,0.06,VWS V14.01,2013-02-22 18:15:00,
2013-02-22 12:17:00,64.2,54.2,29.90,NNE,28,5.0,7.0,70,0.05,,---,0.06,VWS V14.01,2013-02-22 18:17:00,
2013-02-22 12:22:00,64.2,54.2,29.90,East,85,2.0,9.0,70,0.05,,---,0.06,VWS V14.01,2013-02-22 18:22:00,
2013-02-22 12:28:00,64.3,53.1,29.90,ENE,72,4.0,9.0,67,0.05,,---,0.06,VWS V14.01,2013-02-22 18:28:00,
2013-02-22 12:30:00,64.3,53.5,29.89,ENE,78,0.0,9.0,68,0.05,,---,0.06,VWS V14.01,2013-02-22 18:30:00,
2013-02-22 12:33:00,64.3,52.7,29.89,ENE,65,0.0,4.0,66,0.00,,---,0.06,VWS V14.01,2013-02-22 18:33:00,
2013-02-22 12:38:00,64.5,52.9,29.89,ENE,60,0.0,4.0,66,0.00,,---,0.06,VWS V14.01,2013-02-22 18:38:00,
2013-02-22 12:43:00,64.7,52.7,29.89,East,80,2.0,10.0,65,0.00,,---,0.06,VWS V14.01,2013-02-22 18:43:00,
2013-02-22 12:45:00,65.5,54.3,29.86,ENE,67,0.0,7.0,67,0.00,,---,0.06,VWS V14.01,2013-02-22 18:45:00,
2013-02-22 12:48:00,64.7,53.5,29.88,ESE,110,4.0,9.0,67,0.00,,---,0.06,VWS V14.01,2013-02-22 18:48:00,
2013-02-22 12:53:00,64.7,52.7,29.88,East,83,0.0,9.0,65,0.00,,---,0.06,VWS V14.01,2013-02-22 18:53:00,
2013-02-22 12:58:00,64.7,52.3,29.87,ENE,63,0.0,11.0,64,0.00,,---,0.06,VWS V14.01,2013-02-22 18:58:00,
2013-02-22 13:00:00,64.7,52.7,29.87,ENE,63,0.0,11.0,65,0.00,,---,0.06,VWS V14.01,2013-02-22 19:00:00,
2013-02-22 13:03:00,64.8,53.2,29.87,ENE,64,5.0,7.0,66,0.00,,---,0.06,VWS V14.01,2013-02-22 19:03:00,
2013-02-22 13:08:00,65.0,53.8,29.87,East,88,3.0,7.0,67,0.00,,---,0.06,VWS V14.01,2013-02-22 19:08:00,
2013-02-22 13:13:00,65.2,54.8,29.86,ENE,71,2.0,8.0,69,0.00,,---,0.06,VWS V14.01,2013-02-22 19:13:00,
2013-02-22 13:15:00,65.5,55.1,29.86,ENE,69,0.0,8.0,69,0.00,,---,0.06,VWS V14.01,2013-02-22 19:15:00,
2013-02-22 13:19:00,65.2,53.6,29.86,NNE,24,2.0,6.0,66,0.00,,---,0.06,VWS V14.01,2013-02-22 19:19:00,
2013-02-22 13:24:00,65.3,53.7,29.86,NNE,17,2.0,7.0,66,0.00,,---,0.06,VWS V14.01,2013-02-22 19:24:00,
2013-02-22 13:29:00,65.3,54.1,29.87,ENE,58,0.0,7.0,67,0.00,,---,0.06,VWS V14.01,2013-02-22 19:29:00,
2013-02-22 13:30:00,65.3,54.1,29.87,ENE,58,0.0,7.0,67,0.00,,---,0.06,VWS V14.01,2013-02-22 19:30:00,
2013-02-22 13:34:00,65.3,54.5,29.87,NE,49,0.0,6.0,68,0.00,,---,0.06,VWS V14.01,2013-02-22 19:34:00,
2013-02-22 13:39:00,65.2,53.6,29.87,ENE,57,0.0,6.0,66,0.00,,---,0.06,VWS V14.01,2013-02-22 19:39:00,
2013-02-22 13:44:00,65.2,54.0,29.86,ENE,67,0.0,0.0,67,0.00,,---,0.06,VWS V14.01,2013-02-22 19:44:00,
2013-02-22 13:45:00,65.5,54.3,29.86,ENE,67,0.0,7.0,67,0.00,,---,0.06,VWS V14.01,2013-02-22 19:45:00,
2013-02-22 13:49:00,65.2,53.2,29.86,NE,56,5.0,7.0,65,0.00,,---,0.06,VWS V14.01,2013-02-22 19:49:00,
2013-02-22 13:54:00,65.3,53.7,29.86,NNE,32,3.0,7.0,66,0.00,,---,0.06,VWS V14.01,2013-02-22 19:54:00,
2013-02-22 13:59:00,65.3,53.7,29.87,NNE,15,6.0,6.0,66,0.00,,---,0.06,VWS V14.01,2013-02-22 19:59:00,
2013-02-22 14:00:00,65.3,53.2,29.87,NNE,24,3.0,7.0,65,0.00,,---,0.06,VWS V14.01,2013-02-22 20:00:00,
2013-02-22 14:05:00,65.5,53.4,29.87,NE,42,0.0,6.0,65,0.00,,---,0.06,VWS V14.01,2013-02-22 20:05:00,
2013-02-22 14:10:00,65.5,53.8,29.87,NE,52,0.0,6.0,66,0.00,,---,0.06,VWS V14.01,2013-02-22 20:10:00,
2013-02-22 14:15:00,65.5,53.0,29.87,NE,51,2.0,6.0,64,0.00,,---,0.06,VWS V14.01,2013-02-22 20:15:00,
2013-02-22 14:20:00,65.5,54.3,29.87,ENE,72,4.0,7.0,67,0.00,,---,0.06,VWS V14.01,2013-02-22 20:20:00,
2013-02-22 14:25:00,65.6,54.4,29.87,ENE,62,3.0,9.0,67,0.00,,---,0.06,VWS V14.01,2013-02-22 20:25:00,
2013-02-22 14:30:00,65.8,53.7,29.85,ENE,65,5.0,6.0,65,0.00,,---,0.06,VWS V14.01,2013-02-22 20:30:00,
2013-02-22 14:35:00,66.0,54.7,29.85,NE,54,0.0,6.0,67,0.00,,---,0.06,VWS V14.01,2013-02-22 20:35:00,
2013-02-22 14:40:00,66.0,55.2,29.85,ENE,63,4.0,6.0,68,0.00,,---,0.06,VWS V14.01,2013-02-22 20:40:00,
2013-02-22 14:45:00,66.0,53.9,29.84,NNW,347,0.0,3.0,65,0.00,,---,0.06,VWS V14.01,2013-02-22 20:45:00,
2013-02-22 14:50:00,66.0,53.5,29.84,NE,34,6.0,12.0,64,0.00,,---,0.06,VWS V14.01,2013-02-22 20:50:00,
2013-02-22 14:56:00,66.1,53.2,29.84,NE,53,0.0,12.0,63,0.00,,---,0.06,VWS V14.01,2013-02-22 20:56:00,
2013-02-22 15:00:00,65.8,52.9,29.85,East,82,1.0,12.0,63,0.00,,---,0.06,VWS V14.01,2013-02-22 21:00:00,
2013-02-22 15:01:00,65.8,52.4,29.85,North,5,0.0,3.0,62,0.00,,---,0.06,VWS V14.01,2013-02-22 21:01:00,
2013-02-22 15:06:00,65.8,52.4,29.85,East,97,2.0,7.0,62,0.00,,---,0.06,VWS V14.01,2013-02-22 21:06:00,
2013-02-22 15:11:00,65.8,52.0,29.85,NE,48,0.0,7.0,61,0.00,,---,0.06,VWS V14.01,2013-02-22 21:11:00,
2013-02-22 15:15:00,65.8,52.0,29.85,NE,49,0.0,7.0,61,0.00,,---,0.06,VWS V14.01,2013-02-22 21:15:00,
2013-02-22 15:16:00,66.0,52.6,29.85,ESE,107,1.0,3.0,62,0.00,,---,0.06,VWS V14.01,2013-02-22 21:16:00,
2013-02-22 15:21:00,66.1,53.2,29.85,East,81,0.0,9.0,63,0.00,,---,0.06,VWS V14.01,2013-02-22 21:21:00,
2013-02-22 15:26:00,66.1,52.7,29.85,East,80,5.0,9.0,62,0.00,,---,0.06,VWS V14.01,2013-02-22 21:26:00,
2013-02-22 15:30:00,66.4,53.4,29.84,NE,46,2.0,9.0,63,0.00,,---,0.06,VWS V14.01,2013-02-22 21:30:00,
2013-02-22 15:31:00,66.1,53.2,29.84,NE,48,5.0,5.0,63,0.00,,---,0.06,VWS V14.01,2013-02-22 21:31:00,
2013-02-22 15:36:00,66.1,53.2,29.84,ENE,58,4.0,6.0,63,0.00,,---,0.06,VWS V14.01,2013-02-22 21:36:00,
2013-02-22 15:41:00,66.1,54.0,29.84,NNE,12,5.0,8.0,65,0.00,,---,0.06,VWS V14.01,2013-02-22 21:41:00,
2013-02-22 15:45:00,66.1,53.6,29.85,NE,34,4.0,8.0,64,0.00,,---,0.06,VWS V14.01,2013-02-22 21:45:00,
2013-02-22 15:46:00,66.0,53.9,29.85,NE,36,5.0,6.0,65,0.00,,---,0.06,VWS V14.01,2013-02-22 21:46:00,
2013-02-22 15:51:00,66.1,54.8,29.85,NE,39,0.0,9.0,67,0.00,,---,0.06,VWS V14.01,2013-02-22 21:51:00,
2013-02-22 15:56:00,66.0,55.2,29.85,NE,50,6.0,9.0,68,0.00,,---,0.06,VWS V14.01,2013-02-22 21:56:00,
2013-02-22 16:00:00,65.6,54.4,29.83,NE,46,2.0,9.0,67,0.00,,---,0.06,VWS V14.01,2013-02-22 22:00:00,
2013-02-22 16:01:00,66.0,54.7,29.83,NNE,25,6.0,6.0,67,0.00,,---,0.06,VWS V14.01,2013-02-22 22:01:00,
2013-02-22 16:06:00,65.5,54.3,29.83,SE,140,0.0,6.0,67,0.00,,---,0.06,VWS V14.01,2013-02-22 22:06:00,
2013-02-22 16:12:00,65.5,54.7,29.83,ENE,67,0.0,6.0,68,0.00,,---,0.06,VWS V14.01,2013-02-22 22:12:00,
2013-02-22 16:15:00,65.5,54.3,29.86,ENE,67,0.0,6.0,67,0.00,,---,0.06,VWS V14.01,2013-02-22 22:15:00,
2013-02-22 16:17:00,65.5,54.7,29.86,ENE,67,0.0,0.0,68,0.00,,---,0.06,VWS V14.01,2013-02-22 22:17:00,
2013-02-22 16:22:00,66.0,56.0,29.86,ENE,67,0.0,0.0,70,0.00,,---,0.06,VWS V14.01,2013-02-22 22:22:00,
2013-02-22 16:27:00,65.6,54.8,29.86,East,81,0.0,3.0,68,0.00,,---,0.06,VWS V14.01,2013-02-22 22:27:00,
2013-02-22 16:30:00,65.6,54.8,29.84,East,93,0.0,4.0,68,0.00,,---,0.06,VWS V14.01,2013-02-22 22:30:00,
2013-02-22 16:32:00,65.5,54.7,29.84,East,88,0.0,2.0,68,0.00,,---,0.06,VWS V14.01,2013-02-22 22:32:00,
2013-02-22 16:37:00,65.5,54.7,29.84,ENE,74,0.0,5.0,68,0.00,,---,0.06,VWS V14.01,2013-02-22 22:37:00,
2013-02-22 16:42:00,65.5,55.5,29.84,ESE,113,0.0,5.0,70,0.00,,---,0.06,VWS V14.01,2013-02-22 22:42:00,
2013-02-22 16:45:00,65.3,54.9,29.83,East,95,0.0,5.0,69,0.00,,---,0.06,VWS V14.01,2013-02-22 22:45:00,
2013-02-22 16:47:00,65.3,54.9,29.83,ENE,74,0.0,4.0,69,0.00,,---,0.06,VWS V14.01,2013-02-22 22:47:00,
2013-02-22 16:52:00,65.2,54.8,29.83,NE,44,0.0,4.0,69,0.00,,---,0.06,VWS V14.01,2013-02-22 22:52:00,
2013-02-22 16:57:00,65.2,55.6,29.83,NE,52,0.0,5.0,71,0.00,,---,0.06,VWS V14.01,2013-02-22 22:57:00,
2013-02-22 17:00:00,65.2,55.6,29.84,ENE,58,0.0,5.0,71,0.00,,---,0.06,VWS V14.01,2013-02-22 23:00:00,
2013-02-22 17:02:00,65.0,55.4,29.84,East,79,0.0,0.0,71,0.00,,---,0.06,VWS V14.01,2013-02-22 23:02:00,
2013-02-22 17:07:00,65.0,55.8,29.84,East,84,0.0,3.0,72,0.00,,---,0.06,VWS V14.01,2013-02-22 23:07:00,
2013-02-22 17:12:00,64.8,55.2,29.84,ENE,66,0.0,3.0,71,0.00,,---,0.06,VWS V14.01,2013-02-22 23:12:00,
2013-02-22 17:15:00,64.7,55.1,29.84,North,355,0.0,3.0,71,0.00,,---,0.06,VWS V14.01,2013-02-22 23:15:00,
2013-02-22 17:17:00,65.0,55.8,29.84,ENE,61,1.0,6.0,72,0.00,,---,0.06,VWS V14.01,2013-02-22 23:17:00,
2013-02-22 17:23:00,65.0,56.2,29.84,NNE,31,0.0,6.0,73,0.00,,---,0.06,VWS V14.01,2013-02-22 23:23:00,
2013-02-22 17:28:00,65.0,56.2,29.84,NE,38,6.0,6.0,73,0.00,,---,0.06,VWS V14.01,2013-02-22 23:28:00,
2013-02-22 17:30:00,64.5,55.7,29.84,NE,38,1.0,6.0,73,0.00,,---,0.06,VWS V14.01,2013-02-22 23:30:00,
2013-02-22 17:33:00,64.8,56.3,29.84,ENE,75,3.0,5.0,74,0.00,,---,0.06,VWS V14.01,2013-02-22 23:33:00,
2013-02-22 17:38:00,64.7,55.9,29.84,NE,49,1.0,6.0,73,0.00,,---,0.06,VWS V14.01,2013-02-22 23:38:00,
2013-02-22 17:43:00,64.7,56.2,29.84,NE,47,2.0,6.0,74,0.00,,---,0.06,VWS V14.01,2013-02-22 23:43:00,
2013-02-22 17:45:00,64.7,56.2,29.84,NNE,30,2.0,6.0,74,0.00,,---,0.06,VWS V14.01,2013-02-22 23:45:00,
2013-02-22 17:48:00,64.3,56.2,29.84,NE,44,0.0,5.0,75,0.00,,---,0.06,VWS V14.01,2013-02-22 23:48:00,
2013-02-22 17:53:00,64.2,56.1,29.84,NNE,32,0.0,5.0,75,0.00,,---,0.06,VWS V14.01,2013-02-22 23:53:00,
2013-02-22 17:58:00,64.2,56.1,29.85,NE,55,0.0,5.0,75,0.00,,---,0.06,VWS V14.01,2013-02-22 23:58:00,
2013-02-22 18:00:00,64.2,56.1,29.85,NE,55,0.0,5.0,75,0.00,,---,0.06,VWS V14.01,2013-02-23 00:00:00,
2013-02-22 18:03:00,64.2,56.1,29.85,NE,55,2.0,3.0,75,0.00,,---,0.06,VWS V14.01,2013-02-23 00:03:00,
2013-02-22 18:08:00,64.0,56.3,29.85,NE,55,1.0,3.0,76,0.00,,---,0.06,VWS V14.01,2013-02-23 00:08:00,
2013-02-22 18:13:00,64.0,56.7,29.85,NE,55,0.0,3.0,77,0.00,,---,0.06,VWS V14.01,2013-02-23 00:13:00,
2013-02-22 18:15:00,64.0,56.7,29.85,NE,55,0.0,3.0,77,0.00,,---,0.06,VWS V14.01,2013-02-23 00:15:00,
2013-02-22 18:18:00,64.3,57.0,29.85,NE,55,0.0,1.0,77,0.00,,---,0.06,VWS V14.01,2013-02-23 00:18:00,
2013-02-22 18:23:00,64.2,57.2,29.85,NE,55,0.0,1.0,78,0.00,,---,0.06,VWS V14.01,2013-02-23 00:23:00,
2013-02-22 18:28:00,63.9,56.9,29.84,NE,40,3.0,6.0,78,0.00,,---,0.06,VWS V14.01,2013-02-23 00:28:00,
2013-02-22 18:30:00,63.9,56.9,29.84,NNE,29,5.0,6.0,78,0.00,,---,0.06,VWS V14.01,2013-02-23 00:30:00,
2013-02-22 18:33:00,63.7,57.1,29.84,NNE,24,2.0,10.0,79,0.00,,---,0.06,VWS V14.01,2013-02-23 00:33:00,
2013-02-22 18:38:00,63.7,57.1,29.84,NNE,30,3.0,10.0,79,0.00,,---,0.06,VWS V14.01,2013-02-23 00:38:00,
2013-02-22 18:43:00,63.5,56.2,29.85,NE,38,5.0,12.0,77,0.00,,---,0.06,VWS V14.01,2013-02-23 00:43:00,
2013-02-22 18:45:00,63.5,56.2,29.85,North,5,4.0,12.0,77,0.00,,---,0.06,VWS V14.01,2013-02-23 00:45:00,
2013-02-22 18:48:00,63.4,55.7,29.85,NNE,24,11.0,14.0,76,0.00,,---,0.06,VWS V14.01,2013-02-23 00:48:00,
2013-02-22 18:53:00,63.2,55.2,29.85,ENE,63,7.0,14.0,75,0.00,,---,0.06,VWS V14.01,2013-02-23 00:53:00,
2013-02-22 18:58:00,63.2,55.5,29.85,NNE,25,5.0,14.0,76,0.00,,---,0.06,VWS V14.01,2013-02-23 00:58:00,
2013-02-22 19:00:00,63.1,55.4,29.85,NNE,20,4.0,14.0,76,0.00,,---,0.06,VWS V14.01,2013-02-23 01:00:00,
2013-02-22 19:03:00,62.9,55.2,29.85,NNE,25,9.0,12.0,76,0.00,,---,0.06,VWS V14.01,2013-02-23 01:03:00,
2013-02-22 19:09:00,63.1,55.8,29.85,NNE,13,9.0,14.0,77,0.00,,---,0.06,VWS V14.01,2013-02-23 01:09:00,
2013-02-22 19:14:00,62.9,55.6,29.85,NE,42,10.0,15.0,77,0.00,,---,0.06,VWS V14.01,2013-02-23 01:14:00,
2013-02-22 19:15:00,62.6,55.3,29.85,North,10,12.0,15.0,77,0.00,,---,0.06,VWS V14.01,2013-02-23 01:15:00,
2013-02-22 19:19:00,62.7,55.4,29.85,NE,42,7.0,15.0,77,0.00,,---,0.06,VWS V14.01,2013-02-23 01:19:00,
2013-02-22 19:24:00,62.1,55.2,29.85,NE,44,8.0,15.0,78,0.00,,---,0.06,VWS V14.01,2013-02-23 01:24:00,
2013-02-22 19:29:00,62.1,54.5,29.86,North,11,9.0,15.0,76,0.00,,---,0.06,VWS V14.01,2013-02-23 01:29:00,
2013-02-22 19:30:00,62.4,54.7,29.86,NNE,18,6.0,15.0,76,0.00,,---,0.06,VWS V14.01,2013-02-23 01:30:00,
2013-02-22 19:34:00,62.1,54.5,29.86,NE,36,7.0,12.0,76,0.00,,---,0.06,VWS V14.01,2013-02-23 01:34:00,
2013-02-22 19:39:00,62.0,54.4,29.86,NNE,28,5.0,13.0,76,0.00,,---,0.06,VWS V14.01,2013-02-23 01:39:00,
2013-02-22 19:44:00,61.8,53.8,29.86,NNE,15,3.0,13.0,75,0.00,,---,0.06,VWS V14.01,2013-02-23 01:44:00,
2013-02-22 19:45:00,61.8,53.8,29.86,NNE,19,3.0,13.0,75,0.00,,---,0.06,VWS V14.01,2013-02-23 01:45:00,
2013-02-22 19:49:00,61.8,53.8,29.86,NNE,28,10.0,13.0,75,0.00,,---,0.06,VWS V14.01,2013-02-23 01:49:00,
2013-02-22 19:54:00,61.8,53.8,29.86,NNE,32,5.0,13.0,75,0.00,,---,0.06,VWS V14.01,2013-02-23 01:54:00,
2013-02-22 19:59:00,62.0,53.6,29.86,NNE,14,6.0,16.0,74,0.00,,---,0.06,VWS V14.01,2013-02-23 01:59:00,
2013-02-22 20:00:00,62.0,53.6,29.86,NNE,14,6.0,16.0,74,0.00,,---,0.06,VWS V14.01,2013-02-23 02:00:00,
2013-02-22 20:04:00,62.0,53.6,29.86,NNE,15,4.0,13.0,74,0.00,,---,0.06,VWS V14.01,2013-02-23 02:04:00,
2013-02-22 20:09:00,61.5,53.5,29.86,NE,35,6.0,13.0,75,0.00,,---,0.06,VWS V14.01,2013-02-23 02:09:00,
2013-02-22 20:14:00,61.3,53.3,29.85,East,95,1.0,15.0,75,0.00,,---,0.06,VWS V14.01,2013-02-23 02:14:00,
2013-02-22 20:15:00,61.3,53.3,29.85,NE,37,4.0,15.0,75,0.00,,---,0.06,VWS V14.01,2013-02-23 02:15:00,
2013-02-22 20:19:00,61.2,53.2,29.85,NE,46,7.0,11.0,75,0.00,,---,0.06,VWS V14.01,2013-02-23 02:19:00,
2013-02-22 20:24:00,61.2,53.2,29.85,NNW,327,0.0,13.0,75,0.00,,---,0.06,VWS V14.01,2013-02-23 02:24:00,
2013-02-22 20:29:00,61.2,53.2,29.87,NNE,32,9.0,9.0,75,0.00,,---,0.06,VWS V14.01,2013-02-23 02:29:00,
2013-02-22 20:30:00,61.2,53.2,29.87,NE,38,2.0,13.0,75,0.00,,---,0.06,VWS V14.01,2013-02-23 02:30:00,
2013-02-22 20:34:00,61.0,53.0,29.87,NE,43,4.0,13.0,75,0.00,,---,0.06,VWS V14.01,2013-02-23 02:34:00,
2013-02-22 20:39:00,61.0,53.0,29.87,NNE,26,6.0,13.0,75,0.00,,---,0.06,VWS V14.01,2013-02-23 02:39:00,
2013-02-22 20:44:00,61.3,53.7,29.88,NE,44,0.0,1.0,76,0.00,,---,0.06,VWS V14.01,2013-02-23 02:44:00,
2013-02-22 20:45:00,61.0,53.4,29.88,NNE,32,5.0,12.0,76,0.00,,---,0.06,VWS V14.01,2013-02-23 02:45:00,
2013-02-22 20:49:00,61.0,53.0,29.88,ENE,67,4.0,5.0,75,0.00,,---,0.06,VWS V14.01,2013-02-23 02:49:00,
2013-02-22 20:54:00,61.3,53.3,29.88,NNE,21,5.0,5.0,75,0.00,,---,0.06,VWS V14.01,2013-02-23 02:54:00,
2013-02-22 20:59:00,61.3,53.7,29.87,NNE,21,1.0,4.0,76,0.00,,---,0.06,VWS V14.01,2013-02-23 02:59:00,
2013-02-22 21:00:00,61.0,53.4,29.87,NNE,31,4.0,10.0,76,0.00,,---,0.06,VWS V14.01,2013-02-23 03:00:00,
2013-02-22 21:04:00,60.9,53.3,29.87,NE,42,0.0,4.0,76,0.00,,---,0.06,VWS V14.01,2013-02-23 03:04:00,
2013-02-22 21:09:00,60.9,53.3,29.87,NNE,29,5.0,8.0,76,0.00,,---,0.06,VWS V14.01,2013-02-23 03:09:00,
2013-02-22 21:15:00,60.7,53.1,29.88,East,89,2.0,4.0,76,0.00,,---,0.06,VWS V14.01,2013-02-23 03:15:00,
2013-02-22 21:20:00,60.7,53.1,29.88,ENE,75,3.0,4.0,76,0.00,,---,0.06,VWS V14.01,2013-02-23 03:20:00,
2013-02-22 21:25:00,60.9,53.7,29.88,NE,41,0.0,6.0,77,0.00,,---,0.06,VWS V14.01,2013-02-23 03:25:00,
2013-02-22 21:30:00,60.9,53.7,29.89,ENE,60,0.0,2.0,77,0.00,,---,0.06,VWS V14.01,2013-02-23 03:30:00,
2013-02-22 21:35:00,60.7,53.5,29.89,ESE,115,2.0,6.0,77,0.00,,---,0.06,VWS V14.01,2013-02-23 03:35:00,
2013-02-22 21:40:00,61.0,53.4,29.89,NNE,30,4.0,8.0,76,0.00,,---,0.06,VWS V14.01,2013-02-23 03:40:00,
2013-02-22 21:45:00,60.7,53.1,29.88,East,90,6.0,6.0,76,0.00,,---,0.06,VWS V14.01,2013-02-23 03:45:00,
2013-02-22 21:50:00,60.7,53.1,29.88,East,82,2.0,10.0,76,0.00,,---,0.06,VWS V14.01,2013-02-23 03:50:00,
2013-02-22 21:55:00,60.7,53.1,29.88,NE,47,5.0,10.0,76,0.00,,---,0.06,VWS V14.01,2013-02-23 03:55:00,
2013-02-22 22:00:00,60.5,52.9,29.89,ENE,70,3.0,3.0,76,0.00,,---,0.06,VWS V14.01,2013-02-23 04:00:00,
2013-02-22 22:05:00,60.5,52.9,29.89,East,91,3.0,11.0,76,0.00,,---,0.06,VWS V14.01,2013-02-23 04:05:00,
2013-02-22 22:10:00,60.4,53.2,29.89,East,100,4.0,11.0,77,0.00,,---,0.06,VWS V14.01,2013-02-23 04:10:00,
2013-02-22 22:15:00,60.4,53.2,29.87,NNE,27,2.0,2.0,77,0.00,,---,0.06,VWS V14.01,2013-02-23 04:15:00,
2013-02-22 22:20:00,60.2,53.3,29.87,ENE,68,0.0,7.0,78,0.00,,---,0.06,VWS V14.01,2013-02-23 04:20:00,
2013-02-22 22:25:00,60.5,53.6,29.87,East,91,4.0,10.0,78,0.00,,---,0.06,VWS V14.01,2013-02-23 04:25:00,
2013-02-22 22:30:00,60.1,53.2,29.89,ENE,61,1.0,10.0,78,0.00,,---,0.06,VWS V14.01,2013-02-23 04:30:00,
2013-02-22 22:35:00,60.4,53.5,29.89,NE,48,3.0,11.0,78,0.00,,---,0.06,VWS V14.01,2013-02-23 04:35:00,
2013-02-22 22:40:00,60.2,54.0,29.89,NE,51,0.0,11.0,80,0.00,,---,0.06,VWS V14.01,2013-02-23 04:40:00,
2013-02-22 22:45:00,59.8,53.6,29.87,NE,56,5.0,8.0,80,0.00,,---,0.06,VWS V14.01,2013-02-23 04:45:00,
2013-02-22 22:50:00,59.8,53.6,29.87,NE,51,0.0,9.0,80,0.00,,---,0.06,VWS V14.01,2013-02-23 04:50:00,
2013-02-22 22:55:00,59.6,53.4,29.87,NE,40,3.0,11.0,80,0.00,,---,0.06,VWS V14.01,2013-02-23 04:55:00,
2013-02-22 23:00:00,59.6,53.4,29.88,East,83,2.0,3.0,80,0.00,,---,0.06,VWS V14.01,2013-02-23 05:00:00,
2013-02-22 23:01:00,60.1,54.3,29.88,ENE,76,0.0,3.0,81,0.00,,---,0.06,VWS V14.01,2013-02-23 05:01:00,
2013-02-22 23:06:00,59.6,53.8,29.88,East,87,2.0,6.0,81,0.00,,---,0.06,VWS V14.01,2013-02-23 05:06:00,
2013-02-22 23:11:00,59.6,53.8,29.88,NE,49,4.0,10.0,81,0.00,,---,0.06,VWS V14.01,2013-02-23 05:11:00,
2013-02-22 23:15:00,59.6,53.8,29.88,NNE,29,6.0,10.0,81,0.00,,---,0.06,VWS V14.01,2013-02-23 05:15:00,
2013-02-22 23:16:00,59.5,53.7,29.88,NNE,27,9.0,10.0,81,0.00,,---,0.06,VWS V14.01,2013-02-23 05:16:00,
2013-02-22 23:21:00,59.5,53.7,29.88,NE,42,4.0,12.0,81,0.00,,---,0.06,VWS V14.01,2013-02-23 05:21:00,
2013-02-22 23:26:00,59.5,54.0,29.88,ENE,65,5.0,12.0,82,0.00,,---,0.06,VWS V14.01,2013-02-23 05:26:00,
2013-02-22 23:30:00,59.5,54.0,29.87,NNE,32,3.0,12.0,82,0.00,,---,0.06,VWS V14.01,2013-02-23 05:30:00,
2013-02-22 23:31:00,59.5,54.0,29.87,NE,48,3.0,6.0,82,0.00,,---,0.06,VWS V14.01,2013-02-23 05:31:00,
2013-02-22 23:36:00,59.5,54.0,29.87,NNE,17,5.0,10.0,82,0.00,,---,0.06,VWS V14.01,2013-02-23 05:36:00,
2013-02-22 23:41:00,59.8,54.3,29.87,NNE,17,4.0,10.0,82,0.00,,---,0.06,VWS V14.01,2013-02-23 05:41:00,
2013-02-22 23:45:00,59.5,54.0,29.87,NNE,29,4.0,10.0,82,0.00,,---,0.06,VWS V14.01,2013-02-23 05:45:00,
2013-02-22 23:46:00,59.5,54.0,29.87,NNE,17,6.0,10.0,82,0.00,,---,0.06,VWS V14.01,2013-02-23 05:46:00,
2013-02-22 23:51:00,59.8,54.3,29.87,NE,49,3.0,10.0,82,0.00,,---,0.06,VWS V14.01,2013-02-23 05:51:00,
2013-02-22 23:56:00,59.8,54.6,29.87,NE,34,6.0,11.0,83,0.00,,---,0.06,VWS V14.01,2013-02-23 05:56:00,